sensor_id;sensor_type;location;lat;lon;timestamp;pressure;altitude;pressure_sealevel;temperature;humidity
32109;BME280;18624;50.042;8.436;2022-11-15T00:00:57;100077.84;;;7.62;100.00
32109;BME280;18624;50.042;8.436;2022-11-15T00:03:42;100084.19;;;7.79;100.00
32109;BME280;18624;50.042;8.436;2022-11-15T00:06:27;100034.50;;;7.44;100.00
32109;BME280;18624;50.042;8.436;2022-11-15T00:09:12;100057.91;;;7.65;100.00
32109;BME280;18624;50.042;8.436;2022-11-15T00:11:57;100165.56;;;8.31;100.00
32109;BME280;18624;50.042;8.436;2022-11-15T00:14:42;100079.16;;;7.77;100.00
32109;BME280;18624;50.042;8.436;2022-11-15T00:17:27;99946.53;;;6.93;100.00
32109;BME280;18624;50.042;8.436;2022-11-15T00:20:12;100094.16;;;7.89;100.00
32109;BME280;18624;50.042;8.436;2022-11-15T00:22:57;100144.91;;;8.30;100.00
32109;BME280;18624;50.042;8.436;2022-11-15T00:25:42;100109.63;;;7.96;100.00
32109;BME280;18624;50.042;8.436;2022-11-15T00:28:27;100087.50;;;7.90;100.00
32109;BME280;18624;50.042;8.436;2022-11-15T00:31:13;100085.06;;;7.96;100.00
32109;BME280;18624;50.042;8.436;2022-11-15T00:33:59;99938.59;;;7.02;100.00
32109;BME280;18624;50.042;8.436;2022-11-15T00:36:44;100118.91;;;8.22;100.00
32109;BME280;18624;50.042;8.436;2022-11-15T00:39:29;100110.28;;;8.23;100.00
32109;BME280;18624;50.042;8.436;2022-11-15T00:42:13;100013.97;;;7.59;100.00
32109;BME280;18624;50.042;8.436;2022-11-15T00:44:58;100106.56;;;8.13;100.00
32109;BME280;18624;50.042;8.436;2022-11-15T00:47:44;100047.59;;;7.76;100.00
32109;BME280;18624;50.042;8.436;2022-11-15T00:50:30;100123.22;;;8.19;100.00
32109;BME280;18624;50.042;8.436;2022-11-15T00:53:16;100010.75;;;7.45;100.00
32109;BME280;18624;50.042;8.436;2022-11-15T00:56:01;100084.66;;;7.97;100.00
32109;BME280;18624;50.042;8.436;2022-11-15T00:58:46;100024.66;;;7.50;100.00
32109;BME280;18624;50.042;8.436;2022-11-15T01:01:31;100151.41;;;8.36;100.00
32109;BME280;18624;50.042;8.436;2022-11-15T01:04:16;100078.63;;;8.06;100.00
32109;BME280;18624;50.042;8.436;2022-11-15T01:07:00;100051.59;;;7.92;100.00
32109;BME280;18624;50.042;8.436;2022-11-15T01:09:46;100063.50;;;8.01;100.00
32109;BME280;18624;50.042;8.436;2022-11-15T01:12:31;100068.56;;;8.03;100.00
32109;BME280;18624;50.042;8.436;2022-11-15T01:15:16;100131.50;;;8.39;100.00
32109;BME280;18624;50.042;8.436;2022-11-15T01:18:01;100031.28;;;7.73;100.00
32109;BME280;18624;50.042;8.436;2022-11-15T01:20:46;100080.97;;;8.07;100.00
32109;BME280;18624;50.042;8.436;2022-11-15T01:23:31;100065.13;;;7.99;100.00
32109;BME280;18624;50.042;8.436;2022-11-15T01:26:17;100075.22;;;8.02;100.00
32109;BME280;18624;50.042;8.436;2022-11-15T01:29:02;99963.97;;;7.23;100.00
32109;BME280;18624;50.042;8.436;2022-11-15T01:31:47;99980.16;;;7.33;100.00
32109;BME280;18624;50.042;8.436;2022-11-15T01:34:32;100044.66;;;7.67;100.00
32109;BME280;18624;50.042;8.436;2022-11-15T01:37:17;100086.31;;;7.91;100.00
32109;BME280;18624;50.042;8.436;2022-11-15T01:40:02;100101.13;;;8.13;100.00
32109;BME280;18624;50.042;8.436;2022-11-15T01:42:48;99999.28;;;7.53;100.00
32109;BME280;18624;50.042;8.436;2022-11-15T01:45:33;100009.28;;;7.60;100.00
32109;BME280;18624;50.042;8.436;2022-11-15T01:48:18;100088.59;;;8.16;100.00
32109;BME280;18624;50.042;8.436;2022-11-15T01:51:07;100105.97;;;8.26;100.00
32109;BME280;18624;50.042;8.436;2022-11-15T01:53:55;100017.78;;;7.66;100.00
32109;BME280;18624;50.042;8.436;2022-11-15T01:56:52;100109.03;;;8.28;100.00
32109;BME280;18624;50.042;8.436;2022-11-15T01:59:40;100043.78;;;7.94;100.00
32109;BME280;18624;50.042;8.436;2022-11-15T02:02:27;99960.59;;;7.39;100.00
32109;BME280;18624;50.042;8.436;2022-11-15T02:05:12;100046.78;;;7.99;100.00
32109;BME280;18624;50.042;8.436;2022-11-15T02:07:59;100073.31;;;8.19;100.00
32109;BME280;18624;50.042;8.436;2022-11-15T02:10:44;100067.09;;;8.18;100.00
32109;BME280;18624;50.042;8.436;2022-11-15T02:13:29;99995.59;;;7.64;100.00
32109;BME280;18624;50.042;8.436;2022-11-15T02:25:52;100076.13;;;8.35;100.00
32109;BME280;18624;50.042;8.436;2022-11-15T02:29:11;100073.41;;;8.35;100.00
32109;BME280;18624;50.042;8.436;2022-11-15T02:32:23;99998.28;;;7.87;100.00
32109;BME280;18624;50.042;8.436;2022-11-15T02:35:22;100032.94;;;8.10;100.00
32109;BME280;18624;50.042;8.436;2022-11-15T02:38:46;100007.88;;;7.95;100.00
32109;BME280;18624;50.042;8.436;2022-11-15T02:41:54;100069.97;;;8.31;100.00
32109;BME280;18624;50.042;8.436;2022-11-15T02:44:45;100031.00;;;8.10;100.00
32109;BME280;18624;50.042;8.436;2022-11-15T02:47:35;100057.53;;;8.30;100.00
32109;BME280;18624;50.042;8.436;2022-11-15T02:50:26;100048.13;;;8.31;100.00
32109;BME280;18624;50.042;8.436;2022-11-15T02:53:14;99995.06;;;7.92;100.00
32109;BME280;18624;50.042;8.436;2022-11-15T02:55:59;100017.03;;;8.05;100.00
32109;BME280;18624;50.042;8.436;2022-11-15T02:59:29;100043.81;;;8.33;100.00
32109;BME280;18624;50.042;8.436;2022-11-15T03:07:54;100043.09;;;8.29;100.00
32109;BME280;18624;50.042;8.436;2022-11-15T03:14:04;99988.44;;;7.93;100.00
32109;BME280;18624;50.042;8.436;2022-11-15T03:17:24;100051.69;;;8.28;100.00
32109;BME280;18624;50.042;8.436;2022-11-15T03:20:13;100016.56;;;8.10;100.00
32109;BME280;18624;50.042;8.436;2022-11-15T03:23:04;99923.41;;;7.48;100.00
32109;BME280;18624;50.042;8.436;2022-11-15T03:25:51;100000.88;;;7.94;100.00
32109;BME280;18624;50.042;8.436;2022-11-15T03:28:41;100046.47;;;8.37;100.00
32109;BME280;18624;50.042;8.436;2022-11-15T03:31:30;99927.84;;;7.62;100.00
32109;BME280;18624;50.042;8.436;2022-11-15T03:35:22;99988.97;;;8.04;100.00
32109;BME280;18624;50.042;8.436;2022-11-15T03:41:01;99996.19;;;8.15;100.00
32109;BME280;18624;50.042;8.436;2022-11-15T03:43:57;99892.56;;;7.51;100.00
32109;BME280;18624;50.042;8.436;2022-11-15T03:46:59;99997.09;;;8.28;100.00
32109;BME280;18624;50.042;8.436;2022-11-15T03:49:51;100028.03;;;8.61;100.00
32109;BME280;18624;50.042;8.436;2022-11-15T03:52:39;99970.63;;;8.25;100.00
32109;BME280;18624;50.042;8.436;2022-11-15T03:55:25;99985.41;;;8.47;100.00
32109;BME280;18624;50.042;8.436;2022-11-15T03:58:10;99997.78;;;8.52;100.00
32109;BME280;18624;50.042;8.436;2022-11-15T04:00:55;100046.34;;;8.80;100.00
32109;BME280;18624;50.042;8.436;2022-11-15T04:03:40;99958.34;;;8.33;100.00
32109;BME280;18624;50.042;8.436;2022-11-15T04:06:25;100006.09;;;8.65;100.00
32109;BME280;18624;50.042;8.436;2022-11-15T04:09:10;99982.94;;;8.53;100.00
32109;BME280;18624;50.042;8.436;2022-11-15T04:11:55;99967.63;;;8.39;100.00
32109;BME280;18624;50.042;8.436;2022-11-15T04:14:40;99962.16;;;8.39;100.00
32109;BME280;18624;50.042;8.436;2022-11-15T04:17:48;100039.03;;;8.94;100.00
32109;BME280;18624;50.042;8.436;2022-11-15T04:20:33;99929.81;;;8.18;100.00
32109;BME280;18624;50.042;8.436;2022-11-15T04:23:37;100035.00;;;8.98;100.00
32109;BME280;18624;50.042;8.436;2022-11-15T04:26:51;99962.63;;;8.54;100.00
32109;BME280;18624;50.042;8.436;2022-11-15T04:29:36;99930.16;;;8.40;100.00
32109;BME280;18624;50.042;8.436;2022-11-15T04:32:21;99938.69;;;8.42;100.00
32109;BME280;18624;50.042;8.436;2022-11-15T04:35:06;99957.50;;;8.56;100.00
32109;BME280;18624;50.042;8.436;2022-11-15T04:37:51;99992.13;;;8.79;100.00
32109;BME280;18624;50.042;8.436;2022-11-15T04:40:37;100004.78;;;8.89;100.00
32109;BME280;18624;50.042;8.436;2022-11-15T04:43:22;99867.16;;;7.94;100.00
32109;BME280;18624;50.042;8.436;2022-11-15T04:46:07;99996.72;;;8.82;100.00
32109;BME280;18624;50.042;8.436;2022-11-15T04:48:53;99887.66;;;8.02;100.00
32109;BME280;18624;50.042;8.436;2022-11-15T04:51:43;100003.75;;;8.83;100.00
32109;BME280;18624;50.042;8.436;2022-11-15T04:54:29;100022.97;;;8.96;100.00
32109;BME280;18624;50.042;8.436;2022-11-15T04:57:14;99939.75;;;8.48;100.00
32109;BME280;18624;50.042;8.436;2022-11-15T05:00:00;99882.91;;;8.06;100.00
32109;BME280;18624;50.042;8.436;2022-11-15T05:02:45;99921.69;;;8.34;100.00
32109;BME280;18624;50.042;8.436;2022-11-15T05:05:48;99994.97;;;8.92;100.00
32109;BME280;18624;50.042;8.436;2022-11-15T05:08:33;99941.59;;;8.51;100.00
32109;BME280;18624;50.042;8.436;2022-11-15T05:11:18;99977.69;;;8.78;100.00
32109;BME280;18624;50.042;8.436;2022-11-15T05:14:03;99816.59;;;7.70;100.00
32109;BME280;18624;50.042;8.436;2022-11-15T05:16:48;99911.94;;;8.33;100.00
32109;BME280;18624;50.042;8.436;2022-11-15T05:19:33;99983.50;;;8.80;100.00
32109;BME280;18624;50.042;8.436;2022-11-15T05:22:19;99989.81;;;8.94;100.00
32109;BME280;18624;50.042;8.436;2022-11-15T05:25:05;99971.78;;;8.80;100.00
32109;BME280;18624;50.042;8.436;2022-11-15T05:27:50;99993.69;;;8.96;100.00
32109;BME280;18624;50.042;8.436;2022-11-15T05:30:35;99887.34;;;8.33;100.00
32109;BME280;18624;50.042;8.436;2022-11-15T05:33:20;99937.38;;;8.66;100.00
32109;BME280;18624;50.042;8.436;2022-11-15T05:39:09;99898.63;;;8.35;100.00
32109;BME280;18624;50.042;8.436;2022-11-15T05:41:58;99902.13;;;8.35;100.00
32109;BME280;18624;50.042;8.436;2022-11-15T05:44:47;99962.91;;;8.76;100.00
32109;BME280;18624;50.042;8.436;2022-11-15T05:47:34;99935.06;;;8.65;100.00
32109;BME280;18624;50.042;8.436;2022-11-15T05:50:20;99867.03;;;8.18;100.00
32109;BME280;18624;50.042;8.436;2022-11-15T05:53:06;99926.09;;;8.48;100.00
32109;BME280;18624;50.042;8.436;2022-11-15T05:55:51;99932.31;;;8.48;100.00
32109;BME280;18624;50.042;8.436;2022-11-15T05:58:37;99961.78;;;8.73;100.00
32109;BME280;18624;50.042;8.436;2022-11-15T06:01:23;99937.59;;;8.55;100.00
32109;BME280;18624;50.042;8.436;2022-11-15T06:04:09;99976.81;;;8.81;100.00
32109;BME280;18624;50.042;8.436;2022-11-15T06:06:54;99929.00;;;8.57;100.00
32109;BME280;18624;50.042;8.436;2022-11-15T06:09:39;99928.75;;;8.51;100.00
32109;BME280;18624;50.042;8.436;2022-11-15T06:12:24;99936.84;;;8.55;100.00
32109;BME280;18624;50.042;8.436;2022-11-15T06:15:09;99975.97;;;8.84;100.00
32109;BME280;18624;50.042;8.436;2022-11-15T06:17:58;100001.00;;;8.99;100.00
32109;BME280;18624;50.042;8.436;2022-11-15T06:20:43;99950.41;;;8.58;100.00
32109;BME280;18624;50.042;8.436;2022-11-15T06:23:31;99994.34;;;9.00;100.00
32109;BME280;18624;50.042;8.436;2022-11-15T06:26:17;99856.44;;;8.03;100.00
32109;BME280;18624;50.042;8.436;2022-11-15T06:29:03;99995.13;;;9.01;100.00
32109;BME280;18624;50.042;8.436;2022-11-15T06:31:49;99976.22;;;8.90;100.00
32109;BME280;18624;50.042;8.436;2022-11-15T06:34:34;99953.88;;;8.79;100.00
32109;BME280;18624;50.042;8.436;2022-11-15T06:37:20;99901.66;;;8.41;100.00
32109;BME280;18624;50.042;8.436;2022-11-15T06:40:06;99858.09;;;8.17;100.00
32109;BME280;18624;50.042;8.436;2022-11-15T06:42:57;99960.28;;;8.88;100.00
32109;BME280;18624;50.042;8.436;2022-11-15T06:45:42;99898.00;;;8.47;100.00
32109;BME280;18624;50.042;8.436;2022-11-15T06:48:27;99916.88;;;8.58;100.00
32109;BME280;18624;50.042;8.436;2022-11-15T06:51:13;99930.72;;;8.67;100.00
32109;BME280;18624;50.042;8.436;2022-11-15T06:53:58;99865.63;;;8.29;100.00
32109;BME280;18624;50.042;8.436;2022-11-15T06:56:43;99931.16;;;8.66;100.00
32109;BME280;18624;50.042;8.436;2022-11-15T06:59:28;99931.06;;;8.69;100.00
32109;BME280;18624;50.042;8.436;2022-11-15T07:02:13;99968.72;;;8.94;100.00
32109;BME280;18624;50.042;8.436;2022-11-15T07:04:58;99922.88;;;8.69;100.00
32109;BME280;18624;50.042;8.436;2022-11-15T07:07:43;99984.53;;;9.03;100.00
32109;BME280;18624;50.042;8.436;2022-11-15T07:10:35;99966.00;;;8.94;100.00
32109;BME280;18624;50.042;8.436;2022-11-15T07:13:24;99891.78;;;8.47;100.00
32109;BME280;18624;50.042;8.436;2022-11-15T07:16:10;99930.03;;;8.79;100.00
32109;BME280;18624;50.042;8.436;2022-11-15T07:18:55;99909.88;;;8.73;100.00
32109;BME280;18624;50.042;8.436;2022-11-15T07:21:40;99944.88;;;8.95;100.00
32109;BME280;18624;50.042;8.436;2022-11-15T07:24:25;99835.13;;;8.15;100.00
32109;BME280;18624;50.042;8.436;2022-11-15T07:27:10;99993.84;;;9.22;100.00
32109;BME280;18624;50.042;8.436;2022-11-15T07:29:55;99883.06;;;8.52;100.00
32109;BME280;18624;50.042;8.436;2022-11-15T07:32:40;99942.91;;;8.95;100.00
32109;BME280;18624;50.042;8.436;2022-11-15T07:35:26;99996.81;;;9.27;100.00
32109;BME280;18624;50.042;8.436;2022-11-15T07:38:11;99903.31;;;8.71;100.00
32109;BME280;18624;50.042;8.436;2022-11-15T07:41:01;99991.25;;;9.31;100.00
32109;BME280;18624;50.042;8.436;2022-11-15T07:43:46;99895.53;;;8.69;100.00
32109;BME280;18624;50.042;8.436;2022-11-15T07:46:31;99868.22;;;8.53;100.00
32109;BME280;18624;50.042;8.436;2022-11-15T07:49:16;99902.63;;;8.83;100.00
32109;BME280;18624;50.042;8.436;2022-11-15T07:52:01;99986.72;;;9.41;100.00
32109;BME280;18624;50.042;8.436;2022-11-15T07:54:46;99928.41;;;8.98;100.00
32109;BME280;18624;50.042;8.436;2022-11-15T07:57:31;99929.00;;;9.06;100.00
32109;BME280;18624;50.042;8.436;2022-11-15T08:00:17;99863.25;;;8.64;100.00
32109;BME280;18624;50.042;8.436;2022-11-15T08:03:04;99943.09;;;9.21;100.00
32109;BME280;18624;50.042;8.436;2022-11-15T08:05:50;99966.66;;;9.31;100.00
32109;BME280;18624;50.042;8.436;2022-11-15T08:08:36;99951.59;;;9.23;100.00
32109;BME280;18624;50.042;8.436;2022-11-15T08:11:20;99979.09;;;9.48;100.00
32109;BME280;18624;50.042;8.436;2022-11-15T08:14:05;99936.41;;;9.22;100.00
32109;BME280;18624;50.042;8.436;2022-11-15T08:16:50;99943.00;;;9.24;100.00
32109;BME280;18624;50.042;8.436;2022-11-15T08:19:35;99887.56;;;8.91;100.00
32109;BME280;18624;50.042;8.436;2022-11-15T08:22:20;99893.56;;;9.02;100.00
32109;BME280;18624;50.042;8.436;2022-11-15T08:25:05;99866.31;;;8.82;100.00
32109;BME280;18624;50.042;8.436;2022-11-15T08:27:58;99959.94;;;9.48;100.00
32109;BME280;18624;50.042;8.436;2022-11-15T08:30:43;99925.22;;;9.32;100.00
32109;BME280;18624;50.042;8.436;2022-11-15T08:33:31;99981.28;;;9.70;100.00
32109;BME280;18624;50.042;8.436;2022-11-15T08:36:17;99917.19;;;9.25;100.00
32109;BME280;18624;50.042;8.436;2022-11-15T08:39:02;99995.66;;;9.74;100.00
32109;BME280;18624;50.042;8.436;2022-11-15T08:41:47;99916.75;;;9.27;100.00
32109;BME280;18624;50.042;8.436;2022-11-15T08:44:32;99853.69;;;8.88;100.00
32109;BME280;18624;50.042;8.436;2022-11-15T08:47:17;99945.69;;;9.41;100.00
32109;BME280;18624;50.042;8.436;2022-11-15T08:50:02;99947.28;;;9.54;100.00
32109;BME280;18624;50.042;8.436;2022-11-15T08:52:47;99941.91;;;9.51;100.00
32109;BME280;18624;50.042;8.436;2022-11-15T08:55:36;99972.00;;;9.80;100.00
32109;BME280;18624;50.042;8.436;2022-11-15T08:58:21;99936.88;;;9.49;100.00
32109;BME280;18624;50.042;8.436;2022-11-15T09:01:06;99985.59;;;9.83;100.00
32109;BME280;18624;50.042;8.436;2022-11-15T09:03:51;99937.22;;;9.51;100.00
32109;BME280;18624;50.042;8.436;2022-11-15T09:06:36;99966.94;;;9.66;100.00
32109;BME280;18624;50.042;8.436;2022-11-15T09:09:27;99933.44;;;9.45;100.00
32109;BME280;18624;50.042;8.436;2022-11-15T09:12:11;99983.44;;;9.91;100.00
32109;BME280;18624;50.042;8.436;2022-11-15T09:14:56;99930.53;;;9.52;100.00
32109;BME280;18624;50.042;8.436;2022-11-15T09:17:41;99926.81;;;9.59;100.00
32109;BME280;18624;50.042;8.436;2022-11-15T09:20:26;99957.13;;;9.81;100.00
32109;BME280;18624;50.042;8.436;2022-11-15T09:23:11;99956.34;;;9.80;100.00
32109;BME280;18624;50.042;8.436;2022-11-15T09:26:00;99976.22;;;9.97;100.00
32109;BME280;18624;50.042;8.436;2022-11-15T09:28:46;99941.78;;;9.71;100.00
32109;BME280;18624;50.042;8.436;2022-11-15T09:31:32;99977.66;;;10.02;100.00
32109;BME280;18624;50.042;8.436;2022-11-15T09:34:17;99934.56;;;9.77;100.00
32109;BME280;18624;50.042;8.436;2022-11-15T09:37:02;99940.41;;;9.92;100.00
32109;BME280;18624;50.042;8.436;2022-11-15T09:39:47;99975.50;;;10.09;100.00
32109;BME280;18624;50.042;8.436;2022-11-15T09:49:15;99925.63;;;9.89;100.00
32109;BME280;18624;50.042;8.436;2022-11-15T09:52:00;99701.78;;;8.46;100.00
32109;BME280;18624;50.042;8.436;2022-11-15T09:54:33;99918.59;;;9.88;100.00
32109;BME280;18624;50.042;8.436;2022-11-15T09:57:41;99865.09;;;9.58;100.00
32109;BME280;18624;50.042;8.436;2022-11-15T10:00:23;99867.44;;;9.59;100.00
32109;BME280;18624;50.042;8.436;2022-11-15T10:03:20;99871.28;;;9.75;100.00
32109;BME280;18624;50.042;8.436;2022-11-15T10:05:52;99884.44;;;9.80;100.00
32109;BME280;18624;50.042;8.436;2022-11-15T10:08:31;99846.84;;;9.55;100.00
32109;BME280;18624;50.042;8.436;2022-11-15T10:11:02;99950.78;;;10.26;100.00
32109;BME280;18624;50.042;8.436;2022-11-15T10:13:51;99847.94;;;9.57;100.00
32109;BME280;18624;50.042;8.436;2022-11-15T10:24:41;99932.50;;;10.35;100.00
32109;BME280;18624;50.042;8.436;2022-11-15T10:27:14;99937.22;;;10.35;100.00
32109;BME280;18624;50.042;8.436;2022-11-15T10:32:12;99912.88;;;10.24;100.00
32109;BME280;18624;50.042;8.436;2022-11-15T10:34:40;99806.22;;;9.53;100.00
32109;BME280;18624;50.042;8.436;2022-11-15T10:37:06;99830.69;;;9.73;100.00
32109;BME280;18624;50.042;8.436;2022-11-15T10:39:33;99875.59;;;10.01;100.00
32109;BME280;18624;50.042;8.436;2022-11-15T10:44:45;99844.16;;;9.93;100.00
32109;BME280;18624;50.042;8.436;2022-11-15T10:50:32;99828.06;;;9.95;100.00
32109;BME280;18624;50.042;8.436;2022-11-15T10:52:52;99787.41;;;9.55;100.00
32109;BME280;18624;50.042;8.436;2022-11-15T10:55:28;99884.28;;;10.38;100.00
32109;BME280;18624;50.042;8.436;2022-11-15T10:58:03;99887.78;;;10.38;100.00
32109;BME280;18624;50.042;8.436;2022-11-15T11:00:36;99757.97;;;9.59;100.00
32109;BME280;18624;50.042;8.436;2022-11-15T11:03:29;99867.75;;;10.42;100.00
32109;BME280;18624;50.042;8.436;2022-11-15T11:06:23;99870.38;;;10.45;100.00
32109;BME280;18624;50.042;8.436;2022-11-15T11:08:57;99779.44;;;9.86;100.00
32109;BME280;18624;50.042;8.436;2022-11-15T11:11:25;99853.03;;;10.48;100.00
32109;BME280;18624;50.042;8.436;2022-11-15T11:13:52;99843.94;;;10.51;100.00
32109;BME280;18624;50.042;8.436;2022-11-15T11:16:50;99766.75;;;10.05;100.00
32109;BME280;18624;50.042;8.436;2022-11-15T11:28:35;99842.06;;;10.61;100.00
32109;BME280;18624;50.042;8.436;2022-11-15T11:31:16;99772.63;;;10.17;100.00
32109;BME280;18624;50.042;8.436;2022-11-15T11:36:25;99825.41;;;10.68;100.00
32109;BME280;18624;50.042;8.436;2022-11-15T11:47:31;99758.94;;;10.42;100.00
32109;BME280;18624;50.042;8.436;2022-11-15T11:50:09;99824.47;;;10.84;100.00
32109;BME280;18624;50.042;8.436;2022-11-15T11:55:45;99707.66;;;10.17;100.00
32109;BME280;18624;50.042;8.436;2022-11-15T11:58:28;99680.97;;;10.08;100.00
32109;BME280;18624;50.042;8.436;2022-11-15T12:01:23;99688.00;;;10.09;100.00
32109;BME280;18624;50.042;8.436;2022-11-15T12:04:01;99793.75;;;10.89;100.00
32109;BME280;18624;50.042;8.436;2022-11-15T12:06:35;99677.69;;;10.13;100.00
32109;BME280;18624;50.042;8.436;2022-11-15T12:09:12;99760.63;;;10.61;100.00
32109;BME280;18624;50.042;8.436;2022-11-15T12:12:06;99788.34;;;10.98;100.00
32109;BME280;18624;50.042;8.436;2022-11-15T12:17:30;99772.16;;;10.91;100.00
32109;BME280;18624;50.042;8.436;2022-11-15T12:19:59;99793.56;;;11.05;100.00
32109;BME280;18624;50.042;8.436;2022-11-15T12:23:07;99779.41;;;11.07;100.00
32109;BME280;18624;50.042;8.436;2022-11-15T12:25:52;99764.00;;;11.00;100.00
32109;BME280;18624;50.042;8.436;2022-11-15T12:34:03;99764.69;;;11.13;100.00
32109;BME280;18624;50.042;8.436;2022-11-15T12:36:38;99616.53;;;10.17;100.00
32109;BME280;18624;50.042;8.436;2022-11-15T12:39:12;99756.91;;;11.12;100.00
32109;BME280;18624;50.042;8.436;2022-11-15T12:41:41;99736.22;;;10.98;100.00
32109;BME280;18624;50.042;8.436;2022-11-15T13:02:35;99699.41;;;10.99;100.00
32109;BME280;18624;50.042;8.436;2022-11-15T13:17:43;99686.03;;;11.10;100.00
32109;BME280;18624;50.042;8.436;2022-11-15T13:25:23;99700.63;;;11.29;100.00
32109;BME280;18624;50.042;8.436;2022-11-15T13:27:53;99559.81;;;10.39;100.00
32109;BME280;18624;50.042;8.436;2022-11-15T13:30:31;99387.34;;;9.29;100.00
32109;BME280;18624;50.042;8.436;2022-11-15T13:33:08;99610.63;;;10.84;100.00
32109;BME280;18624;50.042;8.436;2022-11-15T13:35:39;99677.00;;;11.32;100.00
32109;BME280;18624;50.042;8.436;2022-11-15T13:38:06;99587.66;;;10.59;100.00
32109;BME280;18624;50.042;8.436;2022-11-15T13:40:36;99546.06;;;10.52;100.00
32109;BME280;18624;50.042;8.436;2022-11-15T13:43:26;99653.03;;;11.23;100.00
32109;BME280;18624;50.042;8.436;2022-11-15T13:46:10;99496.59;;;10.24;100.00
32109;BME280;18624;50.042;8.436;2022-11-15T13:48:39;99619.00;;;11.11;100.00
32109;BME280;18624;50.042;8.436;2022-11-15T13:53:58;99652.03;;;11.39;100.00
32109;BME280;18624;50.042;8.436;2022-11-15T13:56:28;99591.19;;;10.91;100.00
32109;BME280;18624;50.042;8.436;2022-11-15T13:58:57;99538.06;;;10.67;100.00
32109;BME280;18624;50.042;8.436;2022-11-15T14:01:25;99538.81;;;10.67;100.00
32109;BME280;18624;50.042;8.436;2022-11-15T14:03:58;99645.66;;;11.42;100.00
32109;BME280;18624;50.042;8.436;2022-11-15T14:06:27;99607.63;;;11.22;100.00
32109;BME280;18624;50.042;8.436;2022-11-15T14:09:03;99584.22;;;10.99;100.00
32109;BME280;18624;50.042;8.436;2022-11-15T14:11:30;99635.31;;;11.46;100.00
32109;BME280;18624;50.042;8.436;2022-11-15T14:16:37;99622.34;;;11.47;100.00
32109;BME280;18624;50.042;8.436;2022-11-15T14:19:05;99618.84;;;11.46;100.00
32109;BME280;18624;50.042;8.436;2022-11-15T14:21:32;99156.94;;;8.41;100.00
32109;BME280;18624;50.042;8.436;2022-11-15T14:24:18;99527.22;;;10.94;100.00
32109;BME280;18624;50.042;8.436;2022-11-15T14:27:00;99341.25;;;9.72;100.00
32109;BME280;18624;50.042;8.436;2022-11-15T14:29:41;99034.16;;;7.59;100.00
32109;BME280;18624;50.042;8.436;2022-11-15T14:32:22;99605.41;;;11.48;100.00
32109;BME280;18624;50.042;8.436;2022-11-15T14:34:58;99534.13;;;10.99;100.00
32109;BME280;18624;50.042;8.436;2022-11-15T14:37:26;99590.63;;;11.46;100.00
32109;BME280;18624;50.042;8.436;2022-11-15T14:39:54;99591.41;;;11.46;100.00
32109;BME280;18624;50.042;8.436;2022-11-15T14:42:22;99589.41;;;11.47;100.00
32109;BME280;18624;50.042;8.436;2022-11-15T14:44:49;99584.38;;;11.45;100.00
32109;BME280;18624;50.042;8.436;2022-11-15T14:47:16;99567.94;;;11.45;100.00
32109;BME280;18624;50.042;8.436;2022-11-15T14:49:43;99436.00;;;10.53;100.00
32109;BME280;18624;50.042;8.436;2022-11-15T14:52:25;99147.41;;;8.46;100.00
32109;BME280;18624;50.042;8.436;2022-11-15T14:54:58;99552.50;;;11.38;100.00
32109;BME280;18624;50.042;8.436;2022-11-15T14:57:25;99563.19;;;11.46;100.00
32109;BME280;18624;50.042;8.436;2022-11-15T14:59:51;99492.97;;;10.99;100.00
32109;BME280;18624;50.042;8.436;2022-11-15T15:02:24;99563.34;;;11.42;100.00
32109;BME280;18624;50.042;8.436;2022-11-15T15:04:51;99499.84;;;11.03;100.00
32109;BME280;18624;50.042;8.436;2022-11-15T15:07:17;99433.28;;;10.62;100.00
32109;BME280;18624;50.042;8.436;2022-11-15T15:09:46;99383.25;;;10.31;100.00
32109;BME280;18624;50.042;8.436;2022-11-15T15:12:17;99540.75;;;11.38;100.00
32109;BME280;18624;50.042;8.436;2022-11-15T15:14:45;99542.75;;;11.37;100.00
32109;BME280;18624;50.042;8.436;2022-11-15T15:17:11;99388.63;;;10.44;100.00
32109;BME280;18624;50.042;8.436;2022-11-15T15:19:38;99511.31;;;11.29;100.00
32109;BME280;18624;50.042;8.436;2022-11-15T15:22:13;99514.25;;;11.35;100.00
32109;BME280;18624;50.042;8.436;2022-11-15T15:24:41;99491.94;;;11.14;100.00
32109;BME280;18624;50.042;8.436;2022-11-15T15:27:08;99404.84;;;10.60;100.00
32109;BME280;18624;50.042;8.436;2022-11-15T15:29:34;99447.69;;;10.94;100.00
32109;BME280;18624;50.042;8.436;2022-11-15T15:32:00;99344.75;;;10.25;100.00
32109;BME280;18624;50.042;8.436;2022-11-15T15:34:27;99289.69;;;9.92;100.00
32109;BME280;18624;50.042;8.436;2022-11-15T15:37:22;99501.91;;;11.30;100.00
32109;BME280;18624;50.042;8.436;2022-11-15T15:39:54;99430.94;;;10.83;100.00
32109;BME280;18624;50.042;8.436;2022-11-15T15:42:22;99495.63;;;11.30;100.00
32109;BME280;18624;50.042;8.436;2022-11-15T15:44:49;99505.84;;;11.29;100.00
32109;BME280;18624;50.042;8.436;2022-11-15T15:47:23;99498.06;;;11.28;100.00
32109;BME280;18624;50.042;8.436;2022-11-15T15:49:50;99495.03;;;11.26;100.00
32109;BME280;18624;50.042;8.436;2022-11-15T15:52:17;99498.97;;;11.25;100.00
32109;BME280;18624;50.042;8.436;2022-11-15T15:54:43;99394.63;;;10.60;100.00
32109;BME280;18624;50.042;8.436;2022-11-15T15:57:12;99438.84;;;10.81;100.00
32109;BME280;18624;50.042;8.436;2022-11-15T15:59:41;99399.84;;;10.68;100.00
32109;BME280;18624;50.042;8.436;2022-11-15T16:02:14;99432.31;;;10.87;100.00
32109;BME280;18624;50.042;8.436;2022-11-15T16:04:40;99459.63;;;11.00;100.00
32109;BME280;18624;50.042;8.436;2022-11-15T16:07:16;99488.59;;;11.20;100.00
32109;BME280;18624;50.042;8.436;2022-11-15T16:09:46;99445.56;;;10.89;100.00
32109;BME280;18624;50.042;8.436;2022-11-15T16:12:29;99433.38;;;10.81;100.00
32109;BME280;18624;50.042;8.436;2022-11-15T16:14:56;99478.22;;;11.05;100.00
32109;BME280;18624;50.042;8.436;2022-11-15T16:17:25;99483.72;;;11.14;100.00